Time;durP1;ratioP1;P1;durP2;ratioP2;P2;SDS_P1;SDS_P2;PMS_P1;PMS_P2;Temp;Humidity;BMP_temperature;BMP_pressure;BME280_temperature;BME280_humidity;BME280_pressure;Samples;Min_cycle;Max_cycle;Signal;HPM_P1;HPM_P2
2023/04/02 00:01:46;;;;;;;43.80;21.47;;;7.90;99.90;;;;;;4427045;28;658303;-68
2023/04/02 00:04:36;;;;;;;42.40;21.63;;;7.90;99.90;;;;;;4433945;28;657822;-68
2023/04/02 00:07:29;;;;;;;45.00;20.80;;;7.90;99.90;;;;;;4435636;28;658064;-68
2023/04/02 00:10:27;;;;;;;44.30;21.17;;;8.00;99.90;;;;;;4410268;28;659238;-68
2023/04/02 00:13:21;;;;;;;44.80;20.73;;;7.90;99.90;;;;;;4422036;28;658733;-68
2023/04/02 00:16:11;;;;;;;42.10;20.13;;;7.90;99.90;;;;;;4433332;28;657720;-68
2023/04/02 00:19:00;;;;;;;45.53;19.87;;;7.90;99.90;;;;;;4424978;28;657806;-68
2023/04/02 00:21:48;;;;;;;43.33;20.47;;;7.90;99.90;;;;;;4439838;28;658314;-68
2023/04/02 00:24:36;;;;;;;41.57;20.13;;;7.90;99.90;;;;;;4441601;28;657838;-68
2023/04/02 00:27:23;;;;;;;42.20;20.43;;;7.90;99.90;;;;;;4453467;28;658094;-68
2023/04/02 00:30:12;;;;;;;41.47;20.17;;;7.90;99.90;;;;;;4439632;28;657576;-68
2023/04/02 00:32:59;;;;;;;49.07;20.87;;;7.90;99.90;;;;;;4452995;28;657139;-68
2023/04/02 00:35:47;;;;;;;41.80;20.57;;;7.90;99.90;;;;;;4441283;28;659754;-67
2023/04/02 00:38:36;;;;;;;49.27;21.17;;;7.90;99.90;;;;;;4458346;28;657744;-68
2023/04/02 00:41:28;;;;;;;46.07;20.67;;;7.90;99.90;;;;;;4424272;28;659264;-68
2023/04/02 00:44:20;;;;;;;41.40;20.27;;;7.90;99.90;;;;;;4411561;28;657429;-68
2023/04/02 00:47:10;;;;;;;40.77;19.87;;;7.90;99.90;;;;;;4445851;28;658908;-68
2023/04/02 00:49:58;;;;;;;40.63;19.23;;;7.90;99.90;;;;;;4437532;28;658010;-68
2023/04/02 00:52:46;;;;;;;43.27;20.40;;;7.90;99.90;;;;;;4438548;28;657790;-68
2023/04/02 00:55:37;;;;;;;42.57;20.30;;;7.90;99.90;;;;;;4462932;28;657780;-68
2023/04/02 00:58:26;;;;;;;40.13;20.30;;;8.00;99.90;;;;;;4453721;28;657692;-68
2023/04/02 01:01:18;;;;;;;42.70;19.63;;;8.00;99.90;;;;;;4461782;28;657840;-68
2023/04/02 01:04:05;;;;;;;44.93;20.63;;;8.00;99.90;;;;;;4424412;28;658475;-68
2023/04/02 01:06:52;;;;;;;41.57;21.10;;;7.90;99.90;;;;;;4455607;28;657986;-68
2023/04/02 01:09:51;;;;;;;43.50;20.47;;;8.00;99.90;;;;;;4452112;28;658528;-68
2023/04/02 01:12:48;;;;;;;42.07;21.10;;;8.00;99.90;;;;;;4441721;28;658078;-68
2023/04/02 01:15:36;;;;;;;42.50;20.60;;;8.00;99.90;;;;;;4415585;28;657568;-68
2023/04/02 01:18:38;;;;;;;41.70;19.87;;;7.90;99.90;;;;;;4463167;28;657645;-68
2023/04/02 01:21:51;;;;;;;36.80;18.17;;;7.90;99.90;;;;;;4408973;28;658389;-68
2023/04/02 01:24:38;;;;;;;36.10;18.37;;;7.90;99.90;;;;;;4439823;28;658251;-68
2023/04/02 01:27:27;;;;;;;40.43;18.50;;;7.90;99.90;;;;;;4439772;28;658506;-68
2023/04/02 01:30:17;;;;;;;39.43;19.00;;;7.90;99.90;;;;;;4458727;27;657432;-68
2023/04/02 01:33:05;;;;;;;41.03;18.53;;;7.90;99.90;;;;;;4437121;28;658206;-68
2023/04/02 01:35:55;;;;;;;34.30;17.90;;;7.90;99.90;;;;;;4428697;28;658608;-68
2023/04/02 01:38:45;;;;;;;39.63;18.33;;;7.90;99.90;;;;;;4434888;28;658359;-68
2023/04/02 01:41:34;;;;;;;35.83;18.87;;;7.90;99.90;;;;;;4426672;28;658444;-68
2023/04/02 01:44:23;;;;;;;38.60;19.33;;;7.80;99.90;;;;;;4441754;28;657671;-68
2023/04/02 01:47:13;;;;;;;40.90;19.70;;;7.80;99.90;;;;;;4438005;28;657530;-68
2023/04/02 01:50:02;;;;;;;37.93;19.40;;;7.90;99.90;;;;;;4432205;28;657788;-68
2023/04/02 01:52:50;;;;;;;47.40;20.60;;;7.80;99.90;;;;;;4461770;28;658122;-68
2023/04/02 01:55:40;;;;;;;41.43;18.83;;;7.80;99.90;;;;;;4430212;28;659609;-68
2023/04/02 01:58:28;;;;;;;40.47;19.50;;;7.80;99.90;;;;;;4435622;28;658173;-68
2023/04/02 02:01:16;;;;;;;43.58;18.40;;;7.80;99.90;;;;;;4438866;28;658135;-68
2023/04/02 02:04:05;;;;;;;40.10;18.27;;;7.70;99.90;;;;;;4458403;28;657777;-68
2023/04/02 02:06:52;;;;;;;40.43;18.87;;;7.70;99.90;;;;;;4427597;28;658052;-68
2023/04/02 02:09:39;;;;;;;40.10;19.00;;;7.60;99.90;;;;;;4463034;28;657154;-68
2023/04/02 02:12:27;;;;;;;40.57;18.37;;;7.70;99.90;;;;;;4442195;28;657762;-68
2023/04/02 02:15:15;;;;;;;36.77;17.47;;;7.60;99.90;;;;;;4459485;28;658618;-68
2023/04/02 02:18:04;;;;;;;34.77;17.00;;;7.60;99.90;;;;;;4440591;28;658083;-68
2023/04/02 02:20:52;;;;;;;33.57;16.37;;;7.70;99.90;;;;;;4442681;28;658136;-68
2023/04/02 02:23:40;;;;;;;34.43;16.20;;;7.60;99.90;;;;;;4458906;28;657963;-68
2023/04/02 02:26:27;;;;;;;27.90;14.70;;;7.60;99.90;;;;;;4463798;28;658775;-68
2023/04/02 02:29:17;;;;;;;30.23;15.20;;;7.60;99.90;;;;;;4459103;28;658044;-68
2023/04/02 02:32:04;;;;;;;30.00;15.63;;;7.60;99.90;;;;;;4460803;28;658217;-68
2023/04/02 02:34:54;;;;;;;27.47;14.70;;;7.60;99.90;;;;;;4425006;28;657797;-68
2023/04/02 02:37:44;;;;;;;28.67;14.03;;;7.50;99.90;;;;;;4443249;28;657604;-68
2023/04/02 02:40:35;;;;;;;24.47;13.77;;;7.60;99.90;;;;;;4429090;28;657707;-68
2023/04/02 02:43:22;;;;;;;26.63;14.10;;;7.50;99.90;;;;;;4424776;28;658089;-68
2023/04/02 02:46:10;;;;;;;24.40;12.83;;;7.50;99.90;;;;;;4450550;28;660124;-68
2023/04/02 02:48:58;;;;;;;22.93;12.73;;;7.50;99.90;;;;;;4438709;28;658109;-68
2023/04/02 02:51:47;;;;;;;24.43;12.83;;;7.50;99.90;;;;;;4445281;28;657952;-68
2023/04/02 02:54:38;;;;;;;23.07;12.67;;;7.40;99.90;;;;;;4451984;28;657614;-68
2023/04/02 02:57:27;;;;;;;18.70;11.37;;;7.40;99.90;;;;;;4444833;28;657499;-68
2023/04/02 03:00:18;;;;;;;23.77;13.02;;;7.40;99.90;;;;;;4461352;28;657908;-68
2023/04/02 03:03:07;;;;;;;24.90;12.90;;;7.40;99.90;;;;;;4424239;28;658710;-68
2023/04/02 03:05:57;;;;;;;23.23;12.27;;;7.30;99.90;;;;;;4456390;28;658680;-68
2023/04/02 03:08:46;;;;;;;20.40;12.00;;;7.30;99.90;;;;;;4416325;28;657587;-68
2023/04/02 03:11:36;;;;;;;22.60;12.33;;;7.30;99.90;;;;;;4422026;28;658100;-68
2023/04/02 03:14:35;;;;;;;21.97;12.43;;;7.30;99.90;;;;;;4425279;28;658127;-68
2023/04/02 03:17:26;;;;;;;21.00;12.13;;;7.30;99.90;;;;;;4429666;28;659680;-68
2023/04/02 03:20:16;;;;;;;21.13;12.47;;;7.30;99.90;;;;;;4430370;28;658207;-68
2023/04/02 03:23:05;;;;;;;23.33;13.30;;;7.20;99.90;;;;;;4436019;28;658482;-68
2023/04/02 03:25:55;;;;;;;20.77;11.97;;;7.20;99.90;;;;;;4434222;28;658424;-68
2023/04/02 03:28:46;;;;;;;24.40;12.77;;;7.20;99.90;;;;;;4437003;28;658293;-68
2023/04/02 03:31:35;;;;;;;20.90;11.80;;;7.20;99.90;;;;;;4436673;28;658152;-68
2023/04/02 03:34:25;;;;;;;23.13;12.47;;;7.10;99.90;;;;;;4442543;28;658356;-68
2023/04/02 03:37:15;;;;;;;24.30;13.37;;;7.00;99.90;;;;;;4436823;28;658484;-68
2023/04/02 03:40:06;;;;;;;26.50;12.97;;;7.10;99.90;;;;;;4442396;28;659257;-68
2023/04/02 03:42:54;;;;;;;25.07;13.13;;;7.10;99.90;;;;;;4427407;28;658346;-68
2023/04/02 03:45:45;;;;;;;24.42;12.93;;;7.10;99.90;;;;;;4428923;28;657873;-68
2023/04/02 03:48:34;;;;;;;19.90;11.80;;;7.10;99.90;;;;;;4438719;28;659047;-68
2023/04/02 03:51:23;;;;;;;23.03;12.57;;;7.10;99.90;;;;;;4439782;28;658283;-68
2023/04/02 03:54:12;;;;;;;25.30;13.27;;;7.10;99.90;;;;;;4437325;28;658174;-68
2023/04/02 03:56:59;;;;;;;20.60;11.60;;;7.10;99.90;;;;;;4456032;28;657418;-68
2023/04/02 03:59:48;;;;;;;20.85;11.90;;;7.10;99.90;;;;;;4433841;28;657700;-68
2023/04/02 04:02:41;;;;;;;22.03;12.67;;;7.10;99.90;;;;;;4440833;28;658512;-68
2023/04/02 04:05:29;;;;;;;24.80;13.53;;;7.10;99.90;;;;;;4440423;28;658296;-68
2023/04/02 04:08:18;;;;;;;23.27;12.27;;;7.20;99.90;;;;;;4416316;28;657670;-68
2023/04/02 04:11:09;;;;;;;24.08;12.77;;;7.10;99.90;;;;;;4440373;28;657711;-68
2023/04/02 04:13:57;;;;;;;23.13;12.77;;;7.10;99.90;;;;;;4439234;28;657807;-68
2023/04/02 04:16:47;;;;;;;25.67;12.90;;;7.10;99.90;;;;;;4455098;28;657788;-68
2023/04/02 04:19:40;;;;;;;23.90;12.47;;;7.10;99.90;;;;;;4433303;28;658176;-68
2023/04/02 04:22:31;;;;;;;21.07;11.87;;;7.10;99.90;;;;;;4414305;28;657967;-68
2023/04/02 04:25:21;;;;;;;22.83;12.23;;;7.00;99.90;;;;;;4432246;28;658054;-68
2023/04/02 04:28:15;;;;;;;27.93;12.70;;;7.00;99.90;;;;;;4429199;28;658128;-68
2023/04/02 04:31:05;;;;;;;24.40;12.97;;;7.00;99.90;;;;;;4435886;28;657511;-68
2023/04/02 04:33:54;;;;;;;24.87;12.00;;;7.00;99.90;;;;;;4435093;28;659032;-68
2023/04/02 04:36:46;;;;;;;20.33;12.40;;;7.00;99.90;;;;;;4444825;28;657823;-68
2023/04/02 04:39:40;;;;;;;24.20;11.63;;;7.00;99.90;;;;;;4437241;28;658034;-68
2023/04/02 04:42:28;;;;;;;24.70;12.97;;;6.90;99.90;;;;;;4404811;28;657955;-68
2023/04/02 04:45:23;;;;;;;21.87;11.27;;;6.90;99.90;;;;;;4439900;28;657804;-68
2023/04/02 04:48:13;;;;;;;23.70;12.73;;;7.00;99.90;;;;;;4412737;28;657778;-68
2023/04/02 04:51:01;;;;;;;21.83;12.40;;;7.00;99.90;;;;;;4433730;28;658244;-68
2023/04/02 04:53:50;;;;;;;23.90;12.63;;;7.10;99.90;;;;;;4458397;28;658651;-68
2023/04/02 04:56:38;;;;;;;19.90;11.18;;;7.10;99.90;;;;;;4432993;28;658454;-68
2023/04/02 04:59:27;;;;;;;22.63;12.20;;;7.10;99.90;;;;;;4447516;28;657683;-68
2023/04/02 05:02:16;;;;;;;21.90;11.83;;;7.10;99.90;;;;;;4453336;28;657904;-68
2023/04/02 05:05:03;;;;;;;22.97;11.70;;;7.10;99.90;;;;;;4428996;28;658881;-68
2023/04/02 05:07:51;;;;;;;21.10;11.63;;;7.10;99.90;;;;;;4435151;28;657824;-68
2023/04/02 05:10:41;;;;;;;22.97;12.10;;;7.10;99.90;;;;;;4462886;28;657488;-68
2023/04/02 05:13:31;;;;;;;19.13;10.77;;;7.10;99.90;;;;;;4428824;28;657859;-68
2023/04/02 05:16:23;;;;;;;22.25;11.90;;;7.10;99.90;;;;;;4431818;28;658264;-68
2023/04/02 05:19:12;;;;;;;23.13;12.20;;;7.10;99.90;;;;;;4429302;28;658084;-68
2023/04/02 05:22:00;;;;;;;31.00;14.07;;;7.10;99.90;;;;;;4455794;28;657877;-68
2023/04/02 05:24:51;;;;;;;25.90;13.93;;;7.20;99.90;;;;;;4422509;28;658304;-68
2023/04/02 05:27:43;;;;;;;27.63;14.13;;;7.20;99.90;;;;;;4438066;28;658560;-68
2023/04/02 05:30:52;;;;;;;31.73;16.20;;;7.20;99.90;;;;;;4422129;28;657861;-68
2023/04/02 05:33:39;;;;;;;32.30;16.93;;;7.30;99.90;;;;;;4435886;28;659121;-68
2023/04/02 05:36:28;;;;;;;38.37;20.07;;;7.40;99.90;;;;;;4430977;28;658015;-68
2023/04/02 05:39:16;;;;;;;36.40;17.98;;;7.40;99.90;;;;;;4437842;28;657580;-68
2023/04/02 05:42:04;;;;;;;47.47;19.87;;;7.40;99.90;;;;;;4458706;28;657620;-68
2023/04/02 05:45:03;;;;;;;41.53;19.00;;;7.30;99.90;;;;;;4442506;28;657648;-68
2023/04/02 05:47:51;;;;;;;40.77;18.07;;;7.40;99.90;;;;;;4421648;28;658131;-68
2023/04/02 05:50:42;;;;;;;42.33;18.77;;;7.40;99.90;;;;;;4450692;28;658484;-68
2023/04/02 05:53:30;;;;;;;47.83;20.60;;;7.40;99.90;;;;;;4432186;28;657755;-68
2023/04/02 05:56:19;;;;;;;51.70;20.90;;;7.40;99.90;;;;;;4438293;28;658447;-68
2023/04/02 05:59:07;;;;;;;46.07;21.47;;;7.40;99.90;;;;;;4445470;28;657251;-68
2023/04/02 06:01:57;;;;;;;47.78;19.58;;;7.30;99.90;;;;;;4453362;28;657821;-68
2023/04/02 06:04:46;;;;;;;47.10;19.33;;;7.40;99.90;;;;;;4440414;28;657416;-68
2023/04/02 06:07:34;;;;;;;47.22;19.80;;;7.40;99.90;;;;;;4437197;28;658343;-68
2023/04/02 06:10:23;;;;;;;38.07;17.33;;;7.40;99.90;;;;;;4428715;28;658401;-68
2023/04/02 06:13:11;;;;;;;36.93;17.17;;;7.50;99.90;;;;;;4435958;28;658002;-68
2023/04/02 06:15:58;;;;;;;40.03;17.67;;;7.60;99.90;;;;;;4457912;28;658661;-68
2023/04/02 06:18:47;;;;;;;35.43;16.50;;;7.60;99.90;;;;;;4443232;28;657900;-68
2023/04/02 06:21:34;;;;;;;36.43;15.17;;;7.70;99.90;;;;;;4460301;28;657576;-68
2023/04/02 06:24:23;;;;;;;35.70;15.33;;;7.80;99.90;;;;;;4442172;28;658634;-68
2023/04/02 06:27:11;;;;;;;35.53;15.10;;;7.80;99.90;;;;;;4429923;28;658211;-68
2023/04/02 06:30:01;;;;;;;28.77;12.87;;;7.80;99.90;;;;;;4457852;28;657707;-68
2023/04/02 06:32:48;;;;;;;25.63;12.00;;;7.90;99.90;;;;;;4431816;28;658346;-68
2023/04/02 06:35:38;;;;;;;26.77;13.10;;;7.90;99.90;;;;;;4436521;28;657823;-68
2023/04/02 06:38:26;;;;;;;28.70;11.90;;;7.90;99.90;;;;;;4427298;28;659157;-68
2023/04/02 06:41:17;;;;;;;24.97;12.63;;;7.90;99.90;;;;;;4459786;28;658067;-68
2023/04/02 06:44:05;;;;;;;24.80;12.07;;;7.90;99.90;;;;;;4438096;28;657815;-68
2023/04/02 06:46:53;;;;;;;22.43;11.60;;;7.80;99.90;;;;;;4442121;28;658378;-68
2023/04/02 06:49:42;;;;;;;18.50;9.63;;;7.90;99.90;;;;;;4440630;28;657999;-68
2023/04/02 06:52:33;;;;;;;17.57;9.37;;;7.80;99.90;;;;;;4461712;28;657522;-68
2023/04/02 06:55:46;;;;;;;15.17;8.33;;;7.70;99.90;;;;;;4421419;28;656817;-68
2023/04/02 06:58:33;;;;;;;21.17;9.67;;;7.60;99.90;;;;;;4444223;28;656570;-68
2023/04/02 07:01:23;;;;;;;17.70;9.27;;;7.50;99.90;;;;;;4438042;28;656629;-68
2023/04/02 07:04:10;;;;;;;21.93;9.07;;;7.50;99.90;;;;;;4439887;28;656166;-68
2023/04/02 07:06:57;;;;;;;19.07;8.63;;;7.60;99.90;;;;;;4469620;28;655702;-68
2023/04/02 07:09:47;;;;;;;21.53;10.83;;;7.60;99.90;;;;;;4460626;28;656449;-68
2023/04/02 07:12:34;;;;;;;13.93;7.37;;;7.40;99.90;;;;;;4448402;28;658394;-68
2023/04/02 07:15:22;;;;;;;11.40;6.50;;;7.40;99.90;;;;;;4440709;28;656579;-68
2023/04/02 07:18:16;;;;;;;10.07;5.97;;;7.40;99.90;;;;;;4452761;28;657004;-68
2023/04/02 07:21:04;;;;;;;9.07;4.67;;;7.40;99.90;;;;;;4423355;28;657250;-68
2023/04/02 07:23:51;;;;;;;4.20;2.87;;;7.40;99.90;;;;;;4440602;28;655578;-68
2023/04/02 07:26:40;;;;;;;3.77;2.50;;;7.10;99.90;;;;;;4459987;28;656042;-67
2023/04/02 07:29:27;;;;;;;3.20;2.00;;;7.10;99.90;;;;;;4437600;28;656165;-68
2023/04/02 07:32:16;;;;;;;3.57;2.23;;;6.90;99.90;;;;;;4454356;28;655621;-68
2023/04/02 07:35:03;;;;;;;3.20;2.43;;;6.90;99.90;;;;;;4442674;28;656220;-67
2023/04/02 07:37:51;;;;;;;3.00;1.83;;;6.80;99.90;;;;;;4434930;28;655372;-67
2023/04/02 07:40:39;;;;;;;2.50;1.77;;;6.60;99.90;;;;;;4453137;28;655722;-67
2023/04/02 07:43:27;;;;;;;3.03;1.90;;;6.50;99.90;;;;;;4442739;28;656488;-67
2023/04/02 07:46:16;;;;;;;4.27;2.70;;;6.10;99.90;;;;;;4461709;28;656113;-68
2023/04/02 07:49:03;;;;;;;4.40;2.50;;;5.90;99.90;;;;;;4439945;28;656478;-68
2023/04/02 07:51:51;;;;;;;3.40;2.07;;;6.00;99.90;;;;;;4442229;28;655935;-68
2023/04/02 07:54:38;;;;;;;2.13;1.80;;;6.10;99.90;;;;;;4453074;28;656182;-68
2023/04/02 07:57:26;;;;;;;1.97;1.07;;;6.10;99.90;;;;;;4440783;28;655887;-68
2023/04/02 08:00:15;;;;;;;2.37;1.40;;;5.90;99.90;;;;;;4459844;28;656151;-67
2023/04/02 08:03:02;;;;;;;1.97;1.20;;;5.80;99.90;;;;;;4437617;28;657213;-67
2023/04/02 08:05:52;;;;;;;2.67;1.30;;;5.70;99.90;;;;;;4462158;28;655436;-67
2023/04/02 08:08:39;;;;;;;1.50;0.90;;;5.50;99.90;;;;;;4461741;28;656239;-67
2023/04/02 08:11:26;;;;;;;2.17;1.00;;;5.20;99.90;;;;;;4448476;28;655903;-67
2023/04/02 08:14:14;;;;;;;1.90;1.10;;;4.90;99.90;;;;;;4461585;28;655895;-68
2023/04/02 08:17:02;;;;;;;4.43;2.70;;;4.60;99.90;;;;;;4449793;28;656945;-68
2023/04/02 08:19:49;;;;;;;2.23;1.17;;;4.50;99.90;;;;;;4453125;28;655678;-67
2023/04/02 08:22:37;;;;;;;1.33;0.80;;;4.40;99.90;;;;;;4438493;28;656292;-68
2023/04/02 08:25:24;;;;;;;1.60;1.00;;;4.30;99.90;;;;;;4461117;28;655513;-68
2023/04/02 08:28:11;;;;;;;2.40;0.95;;;4.30;99.90;;;;;;4436748;28;655395;-68
2023/04/02 08:30:58;;;;;;;5.27;0.90;;;4.30;99.90;;;;;;4456704;28;655386;-70
2023/04/02 08:33:47;;;;;;;1.83;0.80;;;4.20;99.90;;;;;;4435350;28;655716;-69
2023/04/02 08:36:35;;;;;;;2.30;1.00;;;4.30;99.90;;;;;;4462415;28;655520;-68
2023/04/02 08:39:23;;;;;;;2.93;1.17;;;4.30;99.90;;;;;;4437900;28;656780;-67
2023/04/02 08:42:19;;;;;;;6.60;1.00;;;4.40;99.90;;;;;;4453967;28;655451;-68
2023/04/02 08:45:13;;;;;;;3.73;1.60;;;4.50;99.90;;;;;;4422900;28;655470;-68
2023/04/02 08:48:02;;;;;;;3.60;1.13;;;4.50;99.90;;;;;;4419444;28;656403;-68
2023/04/02 08:50:50;;;;;;;3.83;1.23;;;4.60;99.90;;;;;;4460834;28;655841;-68
2023/04/02 08:53:38;;;;;;;4.30;1.57;;;4.70;99.90;;;;;;4423353;28;657423;-68
2023/04/02 08:56:29;;;;;;;4.00;1.20;;;4.40;99.90;;;;;;4444198;28;655703;-69
2023/04/02 08:59:20;;;;;;;2.63;1.23;;;4.40;99.90;;;;;;4432669;28;655789;-68
2023/04/02 09:02:23;;;;;;;1.93;1.30;;;4.50;99.90;;;;;;4442650;28;657143;-69
2023/04/02 09:05:16;;;;;;;2.30;1.13;;;4.60;99.90;;;;;;4429578;28;655802;-68
2023/04/02 09:08:10;;;;;;;2.00;1.10;;;4.60;99.90;;;;;;4440707;28;655934;-69
2023/04/02 09:11:00;;;;;;;1.37;1.00;;;4.50;99.90;;;;;;4409961;28;656524;-70
2023/04/02 09:13:50;;;;;;;1.90;1.20;;;4.60;99.90;;;;;;4433513;28;656835;-69
2023/04/02 09:16:42;;;;;;;7.07;1.50;;;4.60;99.90;;;;;;4435630;28;656673;-68
2023/04/02 09:19:32;;;;;;;3.60;1.23;;;4.60;99.90;;;;;;4434894;28;655687;-68
2023/04/02 09:22:20;;;;;;;2.47;1.60;;;4.70;99.90;;;;;;4427550;28;655657;-68
2023/04/02 09:25:12;;;;;;;4.77;1.90;;;4.80;99.90;;;;;;4425376;28;656657;-68
2023/04/02 09:28:01;;;;;;;1.73;1.50;;;4.70;99.90;;;;;;4436952;28;655268;-67
2023/04/02 09:31:04;;;;;;;4.20;2.10;;;4.60;99.90;;;;;;4432471;28;655839;-72
2023/04/02 09:33:53;;;;;;;4.07;1.85;;;4.70;99.90;;;;;;4413902;28;656248;-69
2023/04/02 09:36:40;;;;;;;3.63;2.00;;;4.60;99.90;;;;;;4419903;28;655539;-67
2023/04/02 09:39:27;;;;;;;3.50;1.80;;;4.50;99.90;;;;;;4446729;28;656987;-71
2023/04/02 09:42:32;;;;;;;4.33;1.70;;;4.30;99.90;;;;;;4455333;28;655708;-68
2023/04/02 09:45:20;;;;;;;3.33;1.90;;;4.50;99.90;;;;;;4431023;28;655362;-70
2023/04/02 09:48:22;;;;;;;2.70;1.50;;;4.60;99.90;;;;;;4442421;28;656465;-69
2023/04/02 09:51:13;;;;;;;5.57;2.20;;;4.80;99.90;;;;;;4429244;28;655488;-69
2023/04/02 09:54:07;;;;;;;5.23;2.20;;;4.90;99.90;;;;;;4439761;28;656075;-68
2023/04/02 09:57:00;;;;;;;5.17;1.90;;;4.70;99.90;;;;;;4427724;28;655511;-68
2023/04/02 10:00:05;;;;;;;5.87;2.33;;;4.60;99.90;;;;;;4439894;28;655364;-71
2023/04/02 10:03:03;;;;;;;4.57;2.27;;;4.50;99.90;;;;;;4405678;28;656062;-71
2023/04/02 10:06:04;;;;;;;2.80;1.87;;;4.40;99.90;;;;;;4411008;28;655790;-70
2023/04/02 10:08:51;;;;;;;3.33;1.90;;;4.50;99.90;;;;;;4442857;28;655503;-70
2023/04/02 10:11:38;;;;;;;2.73;1.83;;;4.40;99.90;;;;;;4437468;28;655979;-71
2023/04/02 10:14:26;;;;;;;6.00;1.90;;;4.30;99.90;;;;;;4445667;28;656386;-70
2023/04/02 10:17:17;;;;;;;3.73;2.03;;;4.10;99.90;;;;;;4455289;28;655144;-69
2023/04/02 10:20:10;;;;;;;6.50;3.08;;;4.10;99.90;;;;;;4425809;28;657151;-69
2023/04/02 10:22:57;;;;;;;4.87;2.63;;;4.10;99.90;;;;;;4412642;28;655879;-68
2023/04/02 10:25:48;;;;;;;5.03;2.57;;;4.20;99.90;;;;;;4456717;28;655083;-68
2023/04/02 10:28:44;;;;;;;4.50;2.23;;;4.30;99.90;;;;;;4424470;28;655665;-68
2023/04/02 10:31:34;;;;;;;4.10;2.10;;;4.20;99.90;;;;;;4451097;27;655113;-68
2023/04/02 10:34:24;;;;;;;4.17;2.67;;;4.30;99.90;;;;;;4441179;28;655631;-68
2023/04/02 10:37:26;;;;;;;4.27;2.50;;;4.00;99.90;;;;;;4442230;28;655445;-68
2023/04/02 10:40:16;;;;;;;7.07;3.33;;;4.10;99.90;;;;;;4440799;28;656062;-69
2023/04/02 10:43:39;;;;;;;5.00;3.43;;;4.20;99.90;;;;;;4438943;28;656269;-68
2023/04/02 10:46:28;;;;;;;6.50;3.60;;;4.20;99.90;;;;;;4410033;28;656964;-68
2023/04/02 10:49:22;;;;;;;5.97;3.88;;;4.30;99.90;;;;;;4433195;28;656388;-71
2023/04/02 10:52:13;;;;;;;5.40;3.40;;;4.20;99.90;;;;;;4454584;28;655562;-69
2023/04/02 10:55:01;;;;;;;5.37;3.70;;;4.30;99.90;;;;;;4448131;28;655822;-72
2023/04/02 10:57:49;;;;;;;6.10;3.40;;;4.30;99.90;;;;;;4450897;28;655632;-71
2023/04/02 11:00:37;;;;;;;5.10;3.67;;;4.30;99.90;;;;;;4432214;28;656208;-72
2023/04/02 11:03:30;;;;;;;8.23;3.37;;;4.30;99.90;;;;;;4450526;28;655431;-71
2023/04/02 11:06:20;;;;;;;5.40;3.40;;;4.20;99.90;;;;;;4429176;28;655104;-72
2023/04/02 11:09:07;;;;;;;8.80;3.47;;;4.10;99.90;;;;;;4427335;28;656032;-71
2023/04/02 11:11:55;;;;;;;7.93;3.90;;;4.20;99.90;;;;;;4456440;28;655291;-71
2023/04/02 11:14:42;;;;;;;6.67;3.90;;;4.10;99.90;;;;;;4442378;28;656561;-71
2023/04/02 11:17:30;;;;;;;8.10;4.83;;;4.00;99.90;;;;;;4460341;28;655310;-71
2023/04/02 11:20:48;;;;;;;6.37;4.20;;;4.00;99.90;;;;;;4441171;28;656213;-71
2023/04/02 11:23:40;;;;;;;5.47;4.37;;;4.00;99.90;;;;;;4439153;28;655540;-70
2023/04/02 11:26:37;;;;;;;6.10;4.03;;;4.00;99.90;;;;;;4428936;28;657062;-70
2023/04/02 11:29:26;;;;;;;5.80;3.87;;;4.20;99.90;;;;;;4425282;28;655904;-70
2023/04/02 11:32:35;;;;;;;8.52;4.72;;;4.30;99.90;;;;;;4430887;28;656293;-70
2023/04/02 11:35:39;;;;;;;6.27;4.13;;;4.30;99.90;;;;;;4403470;28;657133;-71
2023/04/02 11:38:50;;;;;;;7.43;4.70;;;4.30;99.90;;;;;;4407711;28;656677;-71
2023/04/02 11:42:02;;;;;;;9.30;5.20;;;4.10;99.90;;;;;;4414168;28;655670;-69
2023/04/02 11:44:49;;;;;;;7.17;4.63;;;4.40;99.90;;;;;;4435433;28;655075;-70
2023/04/02 11:47:37;;;;;;;8.73;5.23;;;4.60;99.90;;;;;;4441104;28;656706;-70
2023/04/02 11:50:28;;;;;;;6.57;4.83;;;4.40;99.90;;;;;;4451038;28;655949;-70
2023/04/02 11:53:20;;;;;;;8.85;5.22;;;4.30;99.90;;;;;;4402015;28;656025;-70
2023/04/02 11:56:17;;;;;;;9.13;5.33;;;4.30;99.90;;;;;;4434354;28;656017;-70
2023/04/02 11:59:06;;;;;;;7.78;4.85;;;4.40;99.90;;;;;;4435205;28;656025;-70
2023/04/02 12:02:02;;;;;;;7.93;5.00;;;4.20;99.90;;;;;;4461456;28;656397;-69
2023/04/02 12:05:08;;;;;;;8.13;5.03;;;4.30;99.90;;;;;;4434848;28;656585;-70
2023/04/02 12:08:14;;;;;;;6.83;4.40;;;4.50;99.90;;;;;;4429141;28;655390;-70
2023/04/02 12:11:02;;;;;;;5.95;4.13;;;4.60;99.90;;;;;;4428943;28;656510;-70
2023/04/02 12:13:52;;;;;;;5.97;3.83;;;4.70;99.90;;;;;;4450746;28;656014;-69
2023/04/02 12:16:39;;;;;;;5.63;4.18;;;4.70;99.90;;;;;;4436521;28;655768;-70
2023/04/02 12:19:29;;;;;;;6.33;4.43;;;4.50;99.90;;;;;;4441239;28;655604;-70
2023/04/02 12:22:19;;;;;;;7.83;4.60;;;4.40;99.90;;;;;;4432690;28;655122;-70
2023/04/02 12:25:18;;;;;;;5.73;3.93;;;4.20;99.90;;;;;;4434653;28;655420;-70
2023/04/02 12:28:08;;;;;;;6.45;3.97;;;4.30;99.90;;;;;;4416684;28;655294;-69
2023/04/02 12:31:04;;;;;;;6.43;4.53;;;4.40;99.90;;;;;;4449871;28;656124;-69
2023/04/02 12:33:52;;;;;;;8.17;4.50;;;4.40;99.90;;;;;;4428330;28;655469;-70
2023/04/02 12:36:39;;;;;;;5.80;4.13;;;4.50;99.90;;;;;;4445627;28;655880;-70
2023/04/02 12:39:26;;;;;;;7.40;4.80;;;4.40;99.90;;;;;;4429035;28;655210;-69
2023/04/02 12:42:26;;;;;;;7.63;5.13;;;4.30;99.90;;;;;;4452732;28;655342;-69
2023/04/02 12:45:22;;;;;;;8.23;5.50;;;4.50;99.90;;;;;;4427823;28;656184;-70
2023/04/02 12:48:11;;;;;;;8.50;5.50;;;4.50;99.90;;;;;;4430595;28;656370;-70
2023/04/02 12:50:58;;;;;;;10.43;5.77;;;4.60;99.90;;;;;;4435175;28;656519;-69
2023/04/02 12:53:49;;;;;;;8.67;5.43;;;4.50;99.90;;;;;;4442797;28;656771;-70
2023/04/02 12:56:36;;;;;;;7.45;5.10;;;4.20;99.90;;;;;;4431765;28;655817;-69
2023/04/02 12:59:29;;;;;;;7.47;4.90;;;4.40;99.90;;;;;;4466908;28;655367;-69
2023/04/02 13:02:18;;;;;;;8.50;4.83;;;4.60;99.90;;;;;;4414206;28;655371;-70
2023/04/02 13:05:08;;;;;;;8.18;4.80;;;4.70;99.90;;;;;;4451040;28;655470;-70
2023/04/02 13:07:55;;;;;;;6.47;4.20;;;4.90;99.90;;;;;;4440256;27;655479;-69
2023/04/02 13:10:42;;;;;;;6.03;4.50;;;4.90;99.90;;;;;;4466159;28;656207;-69
2023/04/02 13:13:32;;;;;;;7.20;4.90;;;4.90;99.90;;;;;;4453356;28;655638;-70
2023/04/02 13:16:33;;;;;;;10.20;6.33;;;4.60;99.90;;;;;;4456384;28;655365;-70
2023/04/02 13:19:30;;;;;;;13.90;8.00;;;4.60;99.90;;;;;;4409721;28;656887;-70
2023/04/02 13:22:31;;;;;;;11.13;7.37;;;4.20;99.90;;;;;;4436045;28;656718;-70
2023/04/02 13:25:18;;;;;;;12.23;7.03;;;4.10;99.90;;;;;;4428994;28;657259;-70
2023/04/02 13:28:05;;;;;;;10.93;7.60;;;4.20;99.90;;;;;;4432454;28;656780;-69
2023/04/02 13:30:53;;;;;;;10.60;6.97;;;4.20;99.90;;;;;;4454461;28;657462;-70
2023/04/02 13:33:40;;;;;;;11.47;7.60;;;4.30;99.90;;;;;;4442113;28;656803;-69
2023/04/02 13:36:28;;;;;;;10.87;7.10;;;4.20;99.90;;;;;;4464762;28;658001;-70
2023/04/02 13:39:18;;;;;;;9.98;6.20;;;4.30;99.90;;;;;;4446309;28;656687;-70
2023/04/02 13:42:07;;;;;;;9.88;5.72;;;4.00;99.90;;;;;;4440934;28;655686;-70
2023/04/02 13:44:54;;;;;;;9.20;6.00;;;4.10;99.90;;;;;;4455668;28;656050;-71
2023/04/02 13:47:42;;;;;;;10.07;5.57;;;4.30;99.90;;;;;;4447060;28;657182;-70
2023/04/02 13:50:30;;;;;;;9.80;5.80;;;4.40;99.90;;;;;;4454680;28;656379;-70
2023/04/02 13:53:21;;;;;;;9.43;5.80;;;4.50;99.90;;;;;;4424546;28;656633;-70
2023/04/02 13:56:09;;;;;;;11.80;7.50;;;4.40;99.90;;;;;;4432550;28;655737;-71
2023/04/02 13:58:57;;;;;;;9.20;6.20;;;4.50;99.90;;;;;;4428052;28;657080;-71
2023/04/02 14:01:45;;;;;;;10.57;6.47;;;4.60;99.90;;;;;;4440954;28;655979;-70
2023/04/02 14:04:33;;;;;;;9.77;6.47;;;4.60;99.90;;;;;;4434920;28;658540;-71
2023/04/02 14:07:29;;;;;;;9.70;6.17;;;4.60;99.90;;;;;;4441373;28;658681;-70
2023/04/02 14:10:22;;;;;;;8.30;5.83;;;4.40;99.90;;;;;;4446374;28;655296;-71
2023/04/02 14:13:19;;;;;;;9.98;6.30;;;4.30;99.90;;;;;;4436258;28;655912;-70
2023/04/02 14:16:22;;;;;;;11.77;6.17;;;4.30;99.90;;;;;;4407813;28;655921;-70
2023/04/02 14:19:19;;;;;;;9.98;5.68;;;4.30;99.90;;;;;;4428674;28;656632;-70
2023/04/02 14:22:12;;;;;;;8.47;5.67;;;4.50;99.90;;;;;;4445655;28;655641;-70
2023/04/02 14:25:03;;;;;;;9.35;6.30;;;4.40;99.90;;;;;;4436647;28;655285;-70
2023/04/02 14:27:53;;;;;;;10.70;7.50;;;4.40;99.90;;;;;;4439174;28;656800;-70
2023/04/02 14:30:49;;;;;;;12.27;7.57;;;4.30;99.90;;;;;;4439836;28;657380;-70
2023/04/02 14:33:39;;;;;;;12.43;7.40;;;4.30;99.90;;;;;;4440257;28;656774;-69
2023/04/02 14:36:30;;;;;;;15.03;9.17;;;4.10;99.90;;;;;;4434174;28;656819;-70